Terminal Aerodrome Forecast
Issued by NWS Charleston, WV

Current Version | Previous Version | Graphics & Text | Print | Product List | Glossary On
Versions: 1 2 3 4 5 6 7 8 9 10 11 12 13 14 15 16 17 18 19 20 21 22 23 24 25
000
FTUS41 KRLX 132339
TAFPKB
TAF
KPKB 132339Z 1400/1424 19005KT P6SM OVC070
     FM140300 23009KT P6SM OVC045
     FM140500 25010KT P6SM OVC026
     FM141100 30008KT P6SM BKN022
     FM141300 31006KT P6SM BKN014
     FM141500 32005KT P6SM BKN023=

USA.gov is the U.S. government's official web portal to all federal, state and local government web resources and services.